Date,TemperatureHighF,TemperatureAvgF,TemperatureLowF,DewpointHighF,DewpointAvgF,DewpointLowF,HumidityHigh,HumidityAvg,HumidityLow,PressureMaxIn,PressureMinIn,WindSpeedMaxMPH,WindSpeedAvgMPH,GustSpeedMaxMPH,PrecipitationSumIn
2013-1-4,30.0,17.3,0.0,11.8,6.1,-4.9,83,63,40,29.98,29.86,9,4,9,0.00
2013-1-5,34.5,16.1,1.0,10.5,5.3,-2.8,85,65,33,30.06,29.91,8,2,8,0.00
2013-1-6,40.8,24.3,3.9,13.2,8.3,0.0,86,55,29,30.03,29.76,13,4,13,0.00
2013-1-7,50.2,31.2,17.4,16.7,11.6,5.9,77,47,17,29.76,29.68,11,4,11,0.00
2013-1-8,41.0,23.2,8.2,16.0,12.1,4.5,88,65,35,29.95,29.70,8,2,8,0.00
2013-1-9,53.2,28.7,10.6,19.3,14.1,6.5,85,59,21,30.08,29.82,15,4,15,0.00
2013-1-10,43.0,32.3,18.5,21.0,17.0,11.7,80,54,37,29.82,29.44,22,5,22,0.00
2013-1-11,36.1,23.5,5.9,27.3,10.0,-4.5,91,57,26,29.63,29.33,29,10,29,0.00
2013-1-12,28.8,12.2,-3.6,2.8,-1.2,-8.6,81,58,27,29.67,29.58,12,3,12,0.00
2013-1-13,32.7,13.9,0.1,7.7,2.4,-5.1,82,62,28,29.70,29.62,11,4,11,0.00
2013-1-14,25.0,13.9,3.0,11.5,4.8,-4.9,84,67,44,29.77,29.62,14,4,14,0.00
2013-1-15,27.0,8.4,-8.5,2.1,-3.9,-13.7,80,59,30,29.99,29.75,10,2,10,0.00
2013-1-16,34.3,15.7,0.3,6.6,1.4,-5.8,76,55,28,30.08,29.98,8,2,8,0.00
2013-1-17,45.7,22.8,4.8,15.3,8.5,-0.5,81,57,27,30.15,30.03,8,2,8,0.00
2013-1-18,46.2,26.9,11.8,19.2,14.6,8.1,86,63,32,30.06,29.96,9,2,9,0.00
2013-1-19,44.4,25.8,10.0,19.1,14.3,6.8,90,65,32,30.09,29.97,7,2,7,0.00
2013-1-20,43.0,24.6,8.4,20.3,14.2,5.1,89,67,37,30.03,29.93,8,2,8,0.00
2013-1-21,43.9,29.3,10.8,20.5,15.6,7.2,88,61,38,30.04,29.94,9,3,9,0.00
2013-1-22,32.2,25.9,20.3,17.8,14.7,-1.7,76,64,27,29.94,29.52,6,1,6,0.00
2013-1-23,54.7,32.1,14.2,21.5,17.3,10.2,89,59,24,29.99,29.90,9,2,9,0.00
2013-1-24,56.1,38.0,25.0,30.4,21.1,14.9,74,54,20,29.92,29.83,8,3,8,0.00
2013-1-25,51.4,41.1,35.4,37.7,32.8,26.4,83,72,59,29.89,29.80,7,2,7,0.01
2013-1-26,44.2,40.1,36.7,41.8,37.9,31.4,98,92,80,29.81,29.52,14,4,14,0.67
2013-1-27,59.9,44.4,38.7,42.4,38.8,35.5,99,83,44,29.64,29.53,22,4,22,0.17
2013-1-28,43.5,36.0,27.5,36.3,32.1,23.6,96,86,75,29.53,29.43,24,7,24,0.17
2013-1-29,30.7,25.3,19.8,25.8,16.2,10.5,93,69,47,29.62,29.38,29,12,29,0.01
2013-1-30,40.8,28.1,18.7,23.1,16.5,11.9,80,63,40,29.80,29.62,21,8,21,0.01
2013-1-31,47.8,34.5,23.5,30.3,23.9,18.6,83,66,46,29.87,29.77,14,4,14,0.00